sensor_id;sensor_type;location;lat;lon;timestamp;temperature;humidity
20881;DHT22;10600;53.096;8.802;2023-02-26T00:00:32;-0.50;99.90
20881;DHT22;10600;53.096;8.802;2023-02-26T00:01:34;-0.50;99.90
20881;DHT22;10600;53.096;8.802;2023-02-26T00:02:36;-0.50;99.90
20881;DHT22;10600;53.096;8.802;2023-02-26T00:03:36;-0.50;99.90
20881;DHT22;10600;53.096;8.802;2023-02-26T00:04:37;-0.50;99.90
20881;DHT22;10600;53.096;8.802;2023-02-26T00:05:38;-0.50;99.90
20881;DHT22;10600;53.096;8.802;2023-02-26T00:06:40;-0.50;99.90
20881;DHT22;10600;53.096;8.802;2023-02-26T00:07:51;-0.50;99.90
20881;DHT22;10600;53.096;8.802;2023-02-26T00:08:53;-0.50;99.90
20881;DHT22;10600;53.096;8.802;2023-02-26T00:09:54;-0.50;99.90
20881;DHT22;10600;53.096;8.802;2023-02-26T00:10:56;-0.50;99.90
20881;DHT22;10600;53.096;8.802;2023-02-26T00:11:58;-0.40;99.90
20881;DHT22;10600;53.096;8.802;2023-02-26T00:12:59;-0.40;99.90
20881;DHT22;10600;53.096;8.802;2023-02-26T00:14:00;-0.40;99.90
20881;DHT22;10600;53.096;8.802;2023-02-26T00:15:03;-0.50;99.90
20881;DHT22;10600;53.096;8.802;2023-02-26T00:16:17;-0.40;99.90
20881;DHT22;10600;53.096;8.802;2023-02-26T00:17:43;-0.40;99.90
20881;DHT22;10600;53.096;8.802;2023-02-26T00:18:45;-0.50;99.90
20881;DHT22;10600;53.096;8.802;2023-02-26T00:19:46;-0.40;99.90
20881;DHT22;10600;53.096;8.802;2023-02-26T00:20:47;-0.50;99.90
20881;DHT22;10600;53.096;8.802;2023-02-26T00:21:48;-0.50;99.90
20881;DHT22;10600;53.096;8.802;2023-02-26T00:22:49;-0.50;99.90
20881;DHT22;10600;53.096;8.802;2023-02-26T00:23:50;-0.50;99.90
20881;DHT22;10600;53.096;8.802;2023-02-26T00:24:51;-0.40;99.90
20881;DHT22;10600;53.096;8.802;2023-02-26T00:25:51;-0.40;99.90
20881;DHT22;10600;53.096;8.802;2023-02-26T00:26:52;-0.40;99.90
20881;DHT22;10600;53.096;8.802;2023-02-26T00:27:53;-0.50;99.90
20881;DHT22;10600;53.096;8.802;2023-02-26T00:28:54;-0.50;99.90
20881;DHT22;10600;53.096;8.802;2023-02-26T00:29:55;-0.50;99.90
20881;DHT22;10600;53.096;8.802;2023-02-26T00:30:56;-0.50;99.90
20881;DHT22;10600;53.096;8.802;2023-02-26T00:31:57;-0.50;99.90
20881;DHT22;10600;53.096;8.802;2023-02-26T00:32:58;-0.50;99.90
20881;DHT22;10600;53.096;8.802;2023-02-26T00:33:59;-0.50;99.90
20881;DHT22;10600;53.096;8.802;2023-02-26T00:35:00;-0.50;99.90
20881;DHT22;10600;53.096;8.802;2023-02-26T00:38:36;-0.60;99.90
20881;DHT22;10600;53.096;8.802;2023-02-26T00:41:08;-0.60;99.90
20881;DHT22;10600;53.096;8.802;2023-02-26T00:42:09;-0.60;99.90
20881;DHT22;10600;53.096;8.802;2023-02-26T00:43:18;-0.60;99.90
20881;DHT22;10600;53.096;8.802;2023-02-26T00:44:20;-0.60;99.90
20881;DHT22;10600;53.096;8.802;2023-02-26T00:45:21;-0.60;99.90
20881;DHT22;10600;53.096;8.802;2023-02-26T00:51:29;-0.60;99.90
20881;DHT22;10600;53.096;8.802;2023-02-26T00:55:05;-0.70;99.90
20881;DHT22;10600;53.096;8.802;2023-02-26T00:56:05;-0.70;99.90
20881;DHT22;10600;53.096;8.802;2023-02-26T00:57:06;-0.70;99.90
20881;DHT22;10600;53.096;8.802;2023-02-26T00:58:07;-0.80;99.90
20881;DHT22;10600;53.096;8.802;2023-02-26T00:59:07;-0.70;99.90
20881;DHT22;10600;53.096;8.802;2023-02-26T01:00:09;-0.80;99.90
20881;DHT22;10600;53.096;8.802;2023-02-26T01:01:09;-0.80;99.90
20881;DHT22;10600;53.096;8.802;2023-02-26T01:02:10;-0.80;99.90
20881;DHT22;10600;53.096;8.802;2023-02-26T01:03:11;-0.80;99.90
20881;DHT22;10600;53.096;8.802;2023-02-26T01:04:13;-0.80;99.90
20881;DHT22;10600;53.096;8.802;2023-02-26T01:05:14;-0.80;99.90
20881;DHT22;10600;53.096;8.802;2023-02-26T01:06:18;-0.80;99.90
20881;DHT22;10600;53.096;8.802;2023-02-26T01:07:22;-0.80;99.90
20881;DHT22;10600;53.096;8.802;2023-02-26T01:08:30;-0.90;99.90
20881;DHT22;10600;53.096;8.802;2023-02-26T01:09:34;-0.90;99.90
20881;DHT22;10600;53.096;8.802;2023-02-26T01:10:35;-0.80;99.90
20881;DHT22;10600;53.096;8.802;2023-02-26T01:11:36;-0.80;99.90
20881;DHT22;10600;53.096;8.802;2023-02-26T01:12:37;-0.80;99.90
20881;DHT22;10600;53.096;8.802;2023-02-26T01:13:38;-0.80;99.90
20881;DHT22;10600;53.096;8.802;2023-02-26T01:14:39;-0.80;99.90
20881;DHT22;10600;53.096;8.802;2023-02-26T01:15:46;-0.80;99.90
20881;DHT22;10600;53.096;8.802;2023-02-26T01:18:27;-0.80;99.90
20881;DHT22;10600;53.096;8.802;2023-02-26T01:20:18;-0.80;99.90
20881;DHT22;10600;53.096;8.802;2023-02-26T01:21:03;-0.80;99.90
20881;DHT22;10600;53.096;8.802;2023-02-26T01:22:18;-0.80;99.90
20881;DHT22;10600;53.096;8.802;2023-02-26T01:23:34;-0.80;99.90
20881;DHT22;10600;53.096;8.802;2023-02-26T01:24:37;-0.80;99.90
20881;DHT22;10600;53.096;8.802;2023-02-26T01:25:47;-0.80;99.90
20881;DHT22;10600;53.096;8.802;2023-02-26T01:26:48;-0.80;99.90
20881;DHT22;10600;53.096;8.802;2023-02-26T01:27:50;-0.80;99.90
20881;DHT22;10600;53.096;8.802;2023-02-26T01:28:51;-0.80;99.90
20881;DHT22;10600;53.096;8.802;2023-02-26T01:29:52;-0.80;99.90
20881;DHT22;10600;53.096;8.802;2023-02-26T01:30:56;-0.80;99.90
20881;DHT22;10600;53.096;8.802;2023-02-26T01:36:35;-0.90;99.90
20881;DHT22;10600;53.096;8.802;2023-02-26T01:38:22;-0.90;99.90
20881;DHT22;10600;53.096;8.802;2023-02-26T01:39:32;-0.90;99.90
20881;DHT22;10600;53.096;8.802;2023-02-26T01:42:34;-1.00;99.90
20881;DHT22;10600;53.096;8.802;2023-02-26T01:43:53;-1.00;99.90
20881;DHT22;10600;53.096;8.802;2023-02-26T01:45:10;-1.00;99.90
20881;DHT22;10600;53.096;8.802;2023-02-26T01:49:00;-1.00;99.90
20881;DHT22;10600;53.096;8.802;2023-02-26T01:50:21;-1.00;99.90
20881;DHT22;10600;53.096;8.802;2023-02-26T01:51:46;-1.00;99.90
20881;DHT22;10600;53.096;8.802;2023-02-26T01:53:47;-1.10;99.90
20881;DHT22;10600;53.096;8.802;2023-02-26T01:54:48;-1.10;99.90
20881;DHT22;10600;53.096;8.802;2023-02-26T01:56:21;-1.10;99.90
20881;DHT22;10600;53.096;8.802;2023-02-26T01:57:21;-1.10;99.90
20881;DHT22;10600;53.096;8.802;2023-02-26T01:58:24;-1.10;99.90
20881;DHT22;10600;53.096;8.802;2023-02-26T01:59:26;-1.10;99.90
20881;DHT22;10600;53.096;8.802;2023-02-26T02:00:28;-1.10;99.90
20881;DHT22;10600;53.096;8.802;2023-02-26T02:01:33;-1.10;99.90
20881;DHT22;10600;53.096;8.802;2023-02-26T02:02:36;-1.10;99.90
20881;DHT22;10600;53.096;8.802;2023-02-26T02:03:38;-1.10;99.90
20881;DHT22;10600;53.096;8.802;2023-02-26T02:04:40;-1.10;99.90
20881;DHT22;10600;53.096;8.802;2023-02-26T02:06:03;-1.10;99.90
20881;DHT22;10600;53.096;8.802;2023-02-26T02:07:05;-1.10;99.90
20881;DHT22;10600;53.096;8.802;2023-02-26T02:08:08;-1.10;99.90
20881;DHT22;10600;53.096;8.802;2023-02-26T02:09:09;-1.10;99.90
20881;DHT22;10600;53.096;8.802;2023-02-26T02:10:10;-1.10;99.90
20881;DHT22;10600;53.096;8.802;2023-02-26T02:11:11;-1.10;99.90
20881;DHT22;10600;53.096;8.802;2023-02-26T02:16:23;-1.10;99.90
20881;DHT22;10600;53.096;8.802;2023-02-26T02:17:45;-1.10;99.90
20881;DHT22;10600;53.096;8.802;2023-02-26T02:28:01;-1.10;99.90
20881;DHT22;10600;53.096;8.802;2023-02-26T02:32:10;-1.20;99.90
20881;DHT22;10600;53.096;8.802;2023-02-26T02:33:16;-1.20;99.90
20881;DHT22;10600;53.096;8.802;2023-02-26T02:34:28;-1.20;99.90
20881;DHT22;10600;53.096;8.802;2023-02-26T02:35:39;-1.20;99.90
20881;DHT22;10600;53.096;8.802;2023-02-26T02:36:47;-1.20;99.90
20881;DHT22;10600;53.096;8.802;2023-02-26T02:38:04;-1.30;99.90
20881;DHT22;10600;53.096;8.802;2023-02-26T02:39:12;-1.20;99.90
20881;DHT22;10600;53.096;8.802;2023-02-26T02:40:35;-1.30;99.90
20881;DHT22;10600;53.096;8.802;2023-02-26T02:41:52;-1.30;99.90
20881;DHT22;10600;53.096;8.802;2023-02-26T02:43:03;-1.30;99.90
20881;DHT22;10600;53.096;8.802;2023-02-26T02:44:08;-1.30;99.90
20881;DHT22;10600;53.096;8.802;2023-02-26T02:45:18;-1.30;99.90
20881;DHT22;10600;53.096;8.802;2023-02-26T02:46:29;-1.30;99.90
20881;DHT22;10600;53.096;8.802;2023-02-26T02:47:34;-1.30;99.90
20881;DHT22;10600;53.096;8.802;2023-02-26T02:48:46;-1.30;99.90
20881;DHT22;10600;53.096;8.802;2023-02-26T02:51:06;-1.30;99.90
20881;DHT22;10600;53.096;8.802;2023-02-26T02:52:41;-1.30;99.90
20881;DHT22;10600;53.096;8.802;2023-02-26T02:53:46;-1.30;99.90
20881;DHT22;10600;53.096;8.802;2023-02-26T02:54:55;-1.30;99.90
20881;DHT22;10600;53.096;8.802;2023-02-26T02:56:03;-1.30;99.90
20881;DHT22;10600;53.096;8.802;2023-02-26T02:57:11;-1.30;99.90
20881;DHT22;10600;53.096;8.802;2023-02-26T02:58:23;-1.30;99.90
20881;DHT22;10600;53.096;8.802;2023-02-26T02:59:32;-1.30;99.90
20881;DHT22;10600;53.096;8.802;2023-02-26T03:00:36;-1.30;99.90
20881;DHT22;10600;53.096;8.802;2023-02-26T03:01:39;-1.30;99.90
20881;DHT22;10600;53.096;8.802;2023-02-26T03:04:05;-1.30;99.90
20881;DHT22;10600;53.096;8.802;2023-02-26T03:05:07;-1.30;99.90
20881;DHT22;10600;53.096;8.802;2023-02-26T03:06:08;-1.30;99.90
20881;DHT22;10600;53.096;8.802;2023-02-26T03:07:09;-1.30;99.90
20881;DHT22;10600;53.096;8.802;2023-02-26T03:08:12;-1.30;99.90
20881;DHT22;10600;53.096;8.802;2023-02-26T03:09:15;-1.30;99.90
20881;DHT22;10600;53.096;8.802;2023-02-26T03:10:16;-1.30;99.90
20881;DHT22;10600;53.096;8.802;2023-02-26T03:11:17;-1.30;99.90
20881;DHT22;10600;53.096;8.802;2023-02-26T03:12:17;-1.30;99.90
20881;DHT22;10600;53.096;8.802;2023-02-26T03:13:20;-1.30;99.90
20881;DHT22;10600;53.096;8.802;2023-02-26T03:14:22;-1.30;99.90
20881;DHT22;10600;53.096;8.802;2023-02-26T03:20:56;-1.30;99.90
20881;DHT22;10600;53.096;8.802;2023-02-26T03:22:10;-1.20;99.90
20881;DHT22;10600;53.096;8.802;2023-02-26T03:23:21;-1.20;99.90
20881;DHT22;10600;53.096;8.802;2023-02-26T03:24:28;-1.20;99.90
20881;DHT22;10600;53.096;8.802;2023-02-26T03:25:46;-1.20;99.90
20881;DHT22;10600;53.096;8.802;2023-02-26T03:27:03;-1.20;99.90
20881;DHT22;10600;53.096;8.802;2023-02-26T03:28:31;-1.30;99.90
20881;DHT22;10600;53.096;8.802;2023-02-26T03:30:04;-1.30;99.90
20881;DHT22;10600;53.096;8.802;2023-02-26T03:31:16;-1.30;99.90
20881;DHT22;10600;53.096;8.802;2023-02-26T03:32:33;-1.30;99.90
20881;DHT22;10600;53.096;8.802;2023-02-26T03:33:59;-1.20;99.90
20881;DHT22;10600;53.096;8.802;2023-02-26T03:35:14;-1.20;99.90
20881;DHT22;10600;53.096;8.802;2023-02-26T03:37:23;-1.20;99.90
20881;DHT22;10600;53.096;8.802;2023-02-26T03:38:41;-1.20;99.90
20881;DHT22;10600;53.096;8.802;2023-02-26T03:39:46;-1.20;99.90
20881;DHT22;10600;53.096;8.802;2023-02-26T03:40:56;-1.20;99.90
20881;DHT22;10600;53.096;8.802;2023-02-26T03:42:11;-1.20;99.90
20881;DHT22;10600;53.096;8.802;2023-02-26T03:44:43;-1.20;99.90
20881;DHT22;10600;53.096;8.802;2023-02-26T03:45:48;-1.20;99.90
20881;DHT22;10600;53.096;8.802;2023-02-26T03:46:54;-1.20;99.90
20881;DHT22;10600;53.096;8.802;2023-02-26T03:47:58;-1.20;99.90
20881;DHT22;10600;53.096;8.802;2023-02-26T03:49:04;-1.20;99.90
20881;DHT22;10600;53.096;8.802;2023-02-26T03:50:14;-1.20;99.90
20881;DHT22;10600;53.096;8.802;2023-02-26T03:51:17;-1.20;99.90
20881;DHT22;10600;53.096;8.802;2023-02-26T03:52:21;-1.20;99.90
20881;DHT22;10600;53.096;8.802;2023-02-26T03:53:30;-1.20;99.90
20881;DHT22;10600;53.096;8.802;2023-02-26T03:54:36;-1.20;99.90
20881;DHT22;10600;53.096;8.802;2023-02-26T03:55:46;-1.20;99.90
20881;DHT22;10600;53.096;8.802;2023-02-26T03:56:48;-1.20;99.90
20881;DHT22;10600;53.096;8.802;2023-02-26T03:57:48;-1.20;99.90
20881;DHT22;10600;53.096;8.802;2023-02-26T03:58:49;-1.10;99.90
20881;DHT22;10600;53.096;8.802;2023-02-26T03:59:50;-1.20;99.90
20881;DHT22;10600;53.096;8.802;2023-02-26T04:00:58;-1.20;99.90
20881;DHT22;10600;53.096;8.802;2023-02-26T04:02:10;-1.20;99.90
20881;DHT22;10600;53.096;8.802;2023-02-26T04:03:23;-1.20;99.90
20881;DHT22;10600;53.096;8.802;2023-02-26T04:04:40;-1.10;99.90
20881;DHT22;10600;53.096;8.802;2023-02-26T04:05:46;-1.20;99.90
20881;DHT22;10600;53.096;8.802;2023-02-26T04:06:48;-1.10;99.90
20881;DHT22;10600;53.096;8.802;2023-02-26T04:07:53;-1.20;99.90
20881;DHT22;10600;53.096;8.802;2023-02-26T04:08:54;-1.20;99.90
20881;DHT22;10600;53.096;8.802;2023-02-26T04:09:55;-1.20;99.90
20881;DHT22;10600;53.096;8.802;2023-02-26T04:11:08;-1.10;99.90
20881;DHT22;10600;53.096;8.802;2023-02-26T04:12:10;-1.20;99.90
20881;DHT22;10600;53.096;8.802;2023-02-26T04:13:11;-1.20;99.90
20881;DHT22;10600;53.096;8.802;2023-02-26T04:14:11;-1.20;99.90
20881;DHT22;10600;53.096;8.802;2023-02-26T04:15:13;-1.20;99.90
20881;DHT22;10600;53.096;8.802;2023-02-26T04:16:14;-1.20;99.90
20881;DHT22;10600;53.096;8.802;2023-02-26T04:17:15;-1.20;99.90
20881;DHT22;10600;53.096;8.802;2023-02-26T04:18:15;-1.20;99.90
20881;DHT22;10600;53.096;8.802;2023-02-26T04:19:16;-1.20;99.90
20881;DHT22;10600;53.096;8.802;2023-02-26T04:20:17;-1.20;99.90
20881;DHT22;10600;53.096;8.802;2023-02-26T04:21:20;-1.20;99.90
20881;DHT22;10600;53.096;8.802;2023-02-26T04:22:20;-1.20;99.90
20881;DHT22;10600;53.096;8.802;2023-02-26T04:23:21;-1.20;99.90
20881;DHT22;10600;53.096;8.802;2023-02-26T04:24:22;-1.20;99.90
20881;DHT22;10600;53.096;8.802;2023-02-26T04:25:22;-1.20;99.90
20881;DHT22;10600;53.096;8.802;2023-02-26T04:26:23;-1.20;99.90
20881;DHT22;10600;53.096;8.802;2023-02-26T04:27:24;-1.20;99.90
20881;DHT22;10600;53.096;8.802;2023-02-26T04:28:24;-1.20;99.90
20881;DHT22;10600;53.096;8.802;2023-02-26T04:29:25;-1.20;99.90
20881;DHT22;10600;53.096;8.802;2023-02-26T04:30:25;-1.30;99.90
20881;DHT22;10600;53.096;8.802;2023-02-26T04:31:26;-1.30;99.90
20881;DHT22;10600;53.096;8.802;2023-02-26T04:32:27;-1.30;99.90
20881;DHT22;10600;53.096;8.802;2023-02-26T04:33:27;-1.30;99.90
20881;DHT22;10600;53.096;8.802;2023-02-26T04:34:28;-1.30;99.90
20881;DHT22;10600;53.096;8.802;2023-02-26T04:35:29;-1.30;99.90
20881;DHT22;10600;53.096;8.802;2023-02-26T04:36:30;-1.30;99.90
20881;DHT22;10600;53.096;8.802;2023-02-26T04:37:30;-1.30;99.90
20881;DHT22;10600;53.096;8.802;2023-02-26T04:38:31;-1.30;99.90
20881;DHT22;10600;53.096;8.802;2023-02-26T04:39:32;-1.30;99.90
20881;DHT22;10600;53.096;8.802;2023-02-26T04:40:33;-1.30;99.90
20881;DHT22;10600;53.096;8.802;2023-02-26T04:41:33;-1.30;99.90
20881;DHT22;10600;53.096;8.802;2023-02-26T04:42:34;-1.30;99.90
20881;DHT22;10600;53.096;8.802;2023-02-26T04:43:34;-1.30;99.90
20881;DHT22;10600;53.096;8.802;2023-02-26T04:44:37;-1.30;99.90
20881;DHT22;10600;53.096;8.802;2023-02-26T04:45:37;-1.30;99.90
20881;DHT22;10600;53.096;8.802;2023-02-26T04:46:38;-1.30;99.90
20881;DHT22;10600;53.096;8.802;2023-02-26T04:47:38;-1.30;99.90
20881;DHT22;10600;53.096;8.802;2023-02-26T04:48:39;-1.30;99.90
20881;DHT22;10600;53.096;8.802;2023-02-26T04:49:39;-1.30;99.90
20881;DHT22;10600;53.096;8.802;2023-02-26T04:50:40;-1.30;99.90
20881;DHT22;10600;53.096;8.802;2023-02-26T04:51:41;-1.30;99.90
20881;DHT22;10600;53.096;8.802;2023-02-26T04:52:42;-1.30;99.90
20881;DHT22;10600;53.096;8.802;2023-02-26T04:53:42;-1.30;99.90
20881;DHT22;10600;53.096;8.802;2023-02-26T04:54:44;-1.30;99.90
20881;DHT22;10600;53.096;8.802;2023-02-26T04:55:47;-1.30;99.90
20881;DHT22;10600;53.096;8.802;2023-02-26T04:56:48;-1.30;99.90
20881;DHT22;10600;53.096;8.802;2023-02-26T04:57:48;-1.30;99.90
20881;DHT22;10600;53.096;8.802;2023-02-26T04:58:49;-1.40;99.90
20881;DHT22;10600;53.096;8.802;2023-02-26T04:59:50;-1.40;99.90
20881;DHT22;10600;53.096;8.802;2023-02-26T05:00:51;-1.30;99.90
20881;DHT22;10600;53.096;8.802;2023-02-26T05:01:56;-1.30;99.90
20881;DHT22;10600;53.096;8.802;2023-02-26T05:02:56;-1.40;99.90
20881;DHT22;10600;53.096;8.802;2023-02-26T05:03:59;-1.40;99.90
20881;DHT22;10600;53.096;8.802;2023-02-26T05:05:00;-1.40;99.90
20881;DHT22;10600;53.096;8.802;2023-02-26T05:06:01;-1.30;99.90
20881;DHT22;10600;53.096;8.802;2023-02-26T05:07:01;-1.30;99.90
20881;DHT22;10600;53.096;8.802;2023-02-26T05:08:02;-1.30;99.90
20881;DHT22;10600;53.096;8.802;2023-02-26T05:09:04;-1.30;99.90
20881;DHT22;10600;53.096;8.802;2023-02-26T05:10:05;-1.30;99.90
20881;DHT22;10600;53.096;8.802;2023-02-26T05:11:06;-1.30;99.90
20881;DHT22;10600;53.096;8.802;2023-02-26T05:12:07;-1.30;99.90
20881;DHT22;10600;53.096;8.802;2023-02-26T05:13:08;-1.30;99.90
20881;DHT22;10600;53.096;8.802;2023-02-26T05:14:08;-1.30;99.90
20881;DHT22;10600;53.096;8.802;2023-02-26T05:15:09;-1.30;99.90
20881;DHT22;10600;53.096;8.802;2023-02-26T05:16:10;-1.30;99.90
20881;DHT22;10600;53.096;8.802;2023-02-26T05:17:11;-1.30;99.90
20881;DHT22;10600;53.096;8.802;2023-02-26T05:18:12;-1.30;99.90
20881;DHT22;10600;53.096;8.802;2023-02-26T05:19:12;-1.20;99.90
20881;DHT22;10600;53.096;8.802;2023-02-26T05:20:13;-1.30;99.90
20881;DHT22;10600;53.096;8.802;2023-02-26T05:21:14;-1.20;99.90
20881;DHT22;10600;53.096;8.802;2023-02-26T05:22:15;-1.20;99.90
20881;DHT22;10600;53.096;8.802;2023-02-26T05:23:16;-1.20;99.90
20881;DHT22;10600;53.096;8.802;2023-02-26T05:24:17;-1.20;99.90
20881;DHT22;10600;53.096;8.802;2023-02-26T05:25:18;-1.20;99.90
20881;DHT22;10600;53.096;8.802;2023-02-26T05:26:18;-1.20;99.90
20881;DHT22;10600;53.096;8.802;2023-02-26T05:27:19;-1.20;99.90
20881;DHT22;10600;53.096;8.802;2023-02-26T05:28:19;-1.20;99.90
20881;DHT22;10600;53.096;8.802;2023-02-26T05:29:20;-1.20;99.90
20881;DHT22;10600;53.096;8.802;2023-02-26T05:30:21;-1.20;99.90
20881;DHT22;10600;53.096;8.802;2023-02-26T05:31:21;-1.20;99.90
20881;DHT22;10600;53.096;8.802;2023-02-26T05:32:22;-1.20;99.90
20881;DHT22;10600;53.096;8.802;2023-02-26T05:33:23;-1.20;99.90
20881;DHT22;10600;53.096;8.802;2023-02-26T05:34:23;-1.20;99.90
20881;DHT22;10600;53.096;8.802;2023-02-26T05:35:24;-1.20;99.90
20881;DHT22;10600;53.096;8.802;2023-02-26T05:36:25;-1.20;99.90
20881;DHT22;10600;53.096;8.802;2023-02-26T05:37:25;-1.30;99.90
20881;DHT22;10600;53.096;8.802;2023-02-26T05:38:26;-1.30;99.90
20881;DHT22;10600;53.096;8.802;2023-02-26T05:39:27;-1.20;99.90
20881;DHT22;10600;53.096;8.802;2023-02-26T05:40:27;-1.30;99.90
20881;DHT22;10600;53.096;8.802;2023-02-26T05:41:28;-1.30;99.90
20881;DHT22;10600;53.096;8.802;2023-02-26T05:42:28;-1.30;99.90
20881;DHT22;10600;53.096;8.802;2023-02-26T05:43:29;-1.30;99.90
20881;DHT22;10600;53.096;8.802;2023-02-26T05:44:30;-1.30;99.90
20881;DHT22;10600;53.096;8.802;2023-02-26T05:45:30;-1.30;99.90
20881;DHT22;10600;53.096;8.802;2023-02-26T05:46:31;-1.30;99.90
20881;DHT22;10600;53.096;8.802;2023-02-26T05:47:33;-1.30;99.90
20881;DHT22;10600;53.096;8.802;2023-02-26T05:48:34;-1.30;99.90
20881;DHT22;10600;53.096;8.802;2023-02-26T05:49:34;-1.30;99.90
20881;DHT22;10600;53.096;8.802;2023-02-26T05:50:35;-1.30;99.90
20881;DHT22;10600;53.096;8.802;2023-02-26T05:51:35;-1.40;99.90
20881;DHT22;10600;53.096;8.802;2023-02-26T05:52:36;-1.30;99.90
20881;DHT22;10600;53.096;8.802;2023-02-26T05:53:37;-1.30;99.90
20881;DHT22;10600;53.096;8.802;2023-02-26T05:54:38;-1.40;99.90
20881;DHT22;10600;53.096;8.802;2023-02-26T05:55:38;-1.40;99.90
20881;DHT22;10600;53.096;8.802;2023-02-26T05:56:39;-1.40;99.90
20881;DHT22;10600;53.096;8.802;2023-02-26T05:57:39;-1.40;99.90
20881;DHT22;10600;53.096;8.802;2023-02-26T05:58:40;-1.40;99.90
20881;DHT22;10600;53.096;8.802;2023-02-26T05:59:41;-1.40;99.90
20881;DHT22;10600;53.096;8.802;2023-02-26T06:00:42;-1.40;99.90
20881;DHT22;10600;53.096;8.802;2023-02-26T06:01:42;-1.40;99.90
20881;DHT22;10600;53.096;8.802;2023-02-26T06:02:43;-1.40;99.90
20881;DHT22;10600;53.096;8.802;2023-02-26T06:03:43;-1.40;99.90
20881;DHT22;10600;53.096;8.802;2023-02-26T06:04:44;-1.40;99.90
20881;DHT22;10600;53.096;8.802;2023-02-26T06:05:46;-1.40;99.90
20881;DHT22;10600;53.096;8.802;2023-02-26T06:06:46;-1.40;99.90
20881;DHT22;10600;53.096;8.802;2023-02-26T06:07:47;-1.40;99.90
20881;DHT22;10600;53.096;8.802;2023-02-26T06:08:47;-1.40;99.90
20881;DHT22;10600;53.096;8.802;2023-02-26T06:09:48;-1.40;99.90
20881;DHT22;10600;53.096;8.802;2023-02-26T06:10:50;-1.40;99.90
20881;DHT22;10600;53.096;8.802;2023-02-26T06:11:51;-1.40;99.90
20881;DHT22;10600;53.096;8.802;2023-02-26T06:12:52;-1.40;99.90
20881;DHT22;10600;53.096;8.802;2023-02-26T06:13:52;-1.40;99.90
20881;DHT22;10600;53.096;8.802;2023-02-26T06:14:53;-1.40;99.90
20881;DHT22;10600;53.096;8.802;2023-02-26T06:15:53;-1.40;99.90
20881;DHT22;10600;53.096;8.802;2023-02-26T06:16:54;-1.40;99.90
20881;DHT22;10600;53.096;8.802;2023-02-26T06:17:55;-1.40;99.90
20881;DHT22;10600;53.096;8.802;2023-02-26T06:18:55;-1.40;99.90
20881;DHT22;10600;53.096;8.802;2023-02-26T06:19:56;-1.40;99.90
20881;DHT22;10600;53.096;8.802;2023-02-26T06:20:57;-1.40;99.90
20881;DHT22;10600;53.096;8.802;2023-02-26T06:21:57;-1.30;99.90
20881;DHT22;10600;53.096;8.802;2023-02-26T06:22:58;-1.40;99.90
20881;DHT22;10600;53.096;8.802;2023-02-26T06:23:59;-1.40;99.90
20881;DHT22;10600;53.096;8.802;2023-02-26T06:24:59;-1.40;99.90
20881;DHT22;10600;53.096;8.802;2023-02-26T06:26:00;-1.30;99.90
20881;DHT22;10600;53.096;8.802;2023-02-26T06:27:00;-1.40;99.90
20881;DHT22;10600;53.096;8.802;2023-02-26T06:28:01;-1.40;99.90
20881;DHT22;10600;53.096;8.802;2023-02-26T06:29:02;-1.40;99.90
20881;DHT22;10600;53.096;8.802;2023-02-26T06:30:04;-1.40;99.90
20881;DHT22;10600;53.096;8.802;2023-02-26T06:31:05;-1.40;99.90
20881;DHT22;10600;53.096;8.802;2023-02-26T06:32:05;-1.40;99.90
20881;DHT22;10600;53.096;8.802;2023-02-26T06:33:06;-1.40;99.90
20881;DHT22;10600;53.096;8.802;2023-02-26T06:34:07;-1.40;99.90
20881;DHT22;10600;53.096;8.802;2023-02-26T06:35:07;-1.40;99.90
20881;DHT22;10600;53.096;8.802;2023-02-26T06:36:08;-1.40;99.90
20881;DHT22;10600;53.096;8.802;2023-02-26T06:37:09;-1.40;99.90
20881;DHT22;10600;53.096;8.802;2023-02-26T06:38:10;-1.40;99.90
20881;DHT22;10600;53.096;8.802;2023-02-26T06:39:10;-1.40;99.90
20881;DHT22;10600;53.096;8.802;2023-02-26T06:40:12;-1.40;99.90
20881;DHT22;10600;53.096;8.802;2023-02-26T06:41:14;-1.40;99.90
20881;DHT22;10600;53.096;8.802;2023-02-26T06:42:14;-1.40;99.90
20881;DHT22;10600;53.096;8.802;2023-02-26T06:43:15;-1.40;99.90
20881;DHT22;10600;53.096;8.802;2023-02-26T06:44:16;-1.40;99.90
20881;DHT22;10600;53.096;8.802;2023-02-26T06:45:16;-1.40;99.90
20881;DHT22;10600;53.096;8.802;2023-02-26T06:46:17;-1.40;99.90
20881;DHT22;10600;53.096;8.802;2023-02-26T06:47:17;-1.40;99.90
20881;DHT22;10600;53.096;8.802;2023-02-26T06:48:19;-1.40;99.90
20881;DHT22;10600;53.096;8.802;2023-02-26T06:49:19;-1.40;99.90
20881;DHT22;10600;53.096;8.802;2023-02-26T06:50:20;-1.30;99.90
20881;DHT22;10600;53.096;8.802;2023-02-26T06:51:20;-1.30;99.90
20881;DHT22;10600;53.096;8.802;2023-02-26T06:52:21;-1.30;99.90
20881;DHT22;10600;53.096;8.802;2023-02-26T06:53:22;-1.30;99.90
20881;DHT22;10600;53.096;8.802;2023-02-26T06:54:22;-1.30;99.90
20881;DHT22;10600;53.096;8.802;2023-02-26T06:55:23;-1.30;99.90
20881;DHT22;10600;53.096;8.802;2023-02-26T06:56:27;-1.30;99.90
20881;DHT22;10600;53.096;8.802;2023-02-26T06:57:27;-1.30;99.90
20881;DHT22;10600;53.096;8.802;2023-02-26T06:58:28;-1.20;99.90
20881;DHT22;10600;53.096;8.802;2023-02-26T06:59:29;-1.20;99.90
20881;DHT22;10600;53.096;8.802;2023-02-26T07:00:29;-1.20;99.90
20881;DHT22;10600;53.096;8.802;2023-02-26T07:01:30;-1.20;99.90
20881;DHT22;10600;53.096;8.802;2023-02-26T07:02:33;-1.20;99.90
20881;DHT22;10600;53.096;8.802;2023-02-26T07:03:33;-1.20;99.90
20881;DHT22;10600;53.096;8.802;2023-02-26T07:04:34;-1.20;99.90
20881;DHT22;10600;53.096;8.802;2023-02-26T07:05:34;-1.10;99.90
20881;DHT22;10600;53.096;8.802;2023-02-26T07:06:35;-1.10;99.90
20881;DHT22;10600;53.096;8.802;2023-02-26T07:07:37;-1.10;99.90
20881;DHT22;10600;53.096;8.802;2023-02-26T07:08:38;-1.10;99.90
20881;DHT22;10600;53.096;8.802;2023-02-26T07:09:39;-1.00;99.90
20881;DHT22;10600;53.096;8.802;2023-02-26T07:10:40;-1.00;99.90
20881;DHT22;10600;53.096;8.802;2023-02-26T07:11:40;-1.00;99.90
20881;DHT22;10600;53.096;8.802;2023-02-26T07:12:41;-1.00;99.90
20881;DHT22;10600;53.096;8.802;2023-02-26T07:13:42;-1.00;99.90
20881;DHT22;10600;53.096;8.802;2023-02-26T07:14:42;-0.90;99.90
20881;DHT22;10600;53.096;8.802;2023-02-26T07:15:45;-0.90;99.90
20881;DHT22;10600;53.096;8.802;2023-02-26T07:16:45;-0.90;99.90
20881;DHT22;10600;53.096;8.802;2023-02-26T07:17:46;-0.90;99.90
20881;DHT22;10600;53.096;8.802;2023-02-26T07:18:46;-0.80;99.90
20881;DHT22;10600;53.096;8.802;2023-02-26T07:19:51;-0.80;99.90
20881;DHT22;10600;53.096;8.802;2023-02-26T07:20:51;-0.80;99.90
20881;DHT22;10600;53.096;8.802;2023-02-26T07:21:52;-0.80;99.90
20881;DHT22;10600;53.096;8.802;2023-02-26T07:22:54;-0.70;99.90
20881;DHT22;10600;53.096;8.802;2023-02-26T07:23:55;-0.70;99.90
20881;DHT22;10600;53.096;8.802;2023-02-26T07:24:55;-0.70;99.90
20881;DHT22;10600;53.096;8.802;2023-02-26T07:25:56;-0.60;99.90
20881;DHT22;10600;53.096;8.802;2023-02-26T07:26:57;-0.60;99.90
20881;DHT22;10600;53.096;8.802;2023-02-26T07:27:57;-0.60;99.90
20881;DHT22;10600;53.096;8.802;2023-02-26T07:28:59;-0.60;99.90
20881;DHT22;10600;53.096;8.802;2023-02-26T07:30:00;-0.60;99.90
20881;DHT22;10600;53.096;8.802;2023-02-26T07:31:00;-0.50;99.90
20881;DHT22;10600;53.096;8.802;2023-02-26T07:32:01;-0.50;99.90